createdAt,value
2023-03-29T00:01:11.846Z,1.17
2023-03-29T00:04:02.621Z,1.63
2023-03-29T00:06:33.741Z,2.83
2023-03-29T00:09:02.455Z,2.83
2023-03-29T00:11:30.130Z,2.00
2023-03-29T00:13:57.863Z,1.42
2023-03-29T00:16:25.500Z,1.33
2023-03-29T00:18:53.010Z,1.77
2023-03-29T00:21:20.534Z,1.73
2023-03-29T00:23:48.379Z,5.28
2023-03-29T00:26:16.099Z,6.68
2023-03-29T00:28:43.823Z,7.40
2023-03-29T00:31:13.125Z,5.97
2023-03-29T00:33:41.990Z,4.28
2023-03-29T00:36:09.847Z,2.67
2023-03-29T00:38:37.959Z,2.28
2023-03-29T00:41:07.180Z,2.78
2023-03-29T00:43:53.835Z,4.20
2023-03-29T00:46:22.484Z,6.93
2023-03-29T00:48:51.500Z,4.90
2023-03-29T00:51:20.473Z,3.90
2023-03-29T00:53:54.634Z,2.53
2023-03-29T00:56:22.362Z,3.88
2023-03-29T00:58:52.838Z,3.85
2023-03-29T01:01:26.760Z,2.67
2023-03-29T01:04:00.185Z,2.60
2023-03-29T01:06:30.762Z,1.95
2023-03-29T01:09:00.541Z,2.38
2023-03-29T01:11:29.877Z,4.63
2023-03-29T01:13:57.696Z,30.83
2023-03-29T01:16:26.408Z,23.38
2023-03-29T01:18:54.184Z,10.73
2023-03-29T01:21:24.241Z,4.75
2023-03-29T01:24:08.147Z,3.67
2023-03-29T01:26:44.814Z,2.80
2023-03-29T01:29:32.365Z,2.58
2023-03-29T01:32:05.946Z,2.10
2023-03-29T01:34:44.195Z,2.00
2023-03-29T01:37:12.114Z,1.48
2023-03-29T01:39:40.845Z,1.77
2023-03-29T01:42:12.927Z,2.20
2023-03-29T01:45:07.133Z,2.00
2023-03-29T01:47:38.063Z,1.20
2023-03-29T01:50:10.651Z,1.23
2023-03-29T01:52:44.114Z,1.75
2023-03-29T01:55:13.978Z,1.27
2023-03-29T01:57:43.361Z,1.52
2023-03-29T02:00:14.953Z,1.42
2023-03-29T02:02:45.416Z,1.30
2023-03-29T02:05:15.223Z,2.53
2023-03-29T02:07:44.510Z,1.60
2023-03-29T02:10:12.615Z,1.58
2023-03-29T02:12:40.237Z,1.70
2023-03-29T02:15:12.087Z,1.48
2023-03-29T02:17:39.720Z,1.05
2023-03-29T02:20:21.980Z,1.00
2023-03-29T02:22:56.739Z,1.05
2023-03-29T02:25:25.270Z,1.95
2023-03-29T02:27:53.232Z,1.58
2023-03-29T02:30:21.954Z,1.67
2023-03-29T02:32:53.957Z,1.67
2023-03-29T02:35:41.501Z,1.48
2023-03-29T02:38:11.454Z,1.58
2023-03-29T02:40:39.866Z,1.50
2023-03-29T02:43:10.242Z,1.45
2023-03-29T02:45:38.668Z,1.42
2023-03-29T02:48:08.133Z,1.05
2023-03-29T02:50:39.686Z,2.17
2023-03-29T02:53:18.140Z,1.90
2023-03-29T02:55:47.537Z,0.98
2023-03-29T02:58:16.020Z,1.60
2023-03-29T03:00:46.166Z,1.45
2023-03-29T03:03:14.038Z,1.42
2023-03-29T03:05:42.407Z,1.65
2023-03-29T03:08:10.023Z,3.28
2023-03-29T03:10:38.306Z,1.60
2023-03-29T03:13:05.820Z,2.22
2023-03-29T03:15:38.650Z,1.58
2023-03-29T03:18:06.585Z,1.42
2023-03-29T03:20:34.142Z,2.30
2023-03-29T03:23:03.954Z,2.05
2023-03-29T03:25:32.291Z,1.45
2023-03-29T03:27:59.803Z,2.58
2023-03-29T03:30:27.862Z,2.13
2023-03-29T03:32:55.660Z,2.65
2023-03-29T03:35:23.471Z,2.63
2023-03-29T03:37:51.505Z,2.15
2023-03-29T03:40:19.301Z,2.72
2023-03-29T03:42:47.525Z,2.70
2023-03-29T03:45:15.375Z,2.83
2023-03-29T03:47:42.972Z,4.07
2023-03-29T03:50:10.844Z,2.72
2023-03-29T03:52:38.357Z,3.08
2023-03-29T03:55:06.281Z,2.58
2023-03-29T03:57:34.422Z,2.25
2023-03-29T04:00:02.290Z,3.42
2023-03-29T04:02:29.866Z,3.20
2023-03-29T04:04:57.378Z,3.42
2023-03-29T04:07:26.057Z,3.63
2023-03-29T04:09:53.939Z,3.80
2023-03-29T04:12:21.451Z,4.55
2023-03-29T04:14:49.215Z,2.08
2023-03-29T04:17:16.733Z,3.10
2023-03-29T04:19:44.421Z,3.33
2023-03-29T04:22:14.917Z,3.15
2023-03-29T04:24:42.455Z,3.30
2023-03-29T04:27:10.052Z,3.35
2023-03-29T04:29:37.720Z,4.05
2023-03-29T04:32:05.270Z,3.47
2023-03-29T04:34:32.790Z,3.33
2023-03-29T04:37:00.280Z,3.95
2023-03-29T04:39:34.521Z,4.13
2023-03-29T04:42:03.633Z,6.03
2023-03-29T04:44:34.170Z,3.53
2023-03-29T04:47:04.884Z,2.67
2023-03-29T04:49:33.331Z,3.85
2023-03-29T04:52:01.845Z,3.63
2023-03-29T04:54:29.322Z,3.90
2023-03-29T04:56:57.628Z,3.65
2023-03-29T04:59:25.593Z,4.03
2023-03-29T05:01:53.345Z,3.22
2023-03-29T05:04:21.547Z,3.35
2023-03-29T05:06:49.948Z,5.25
2023-03-29T05:09:17.737Z,3.72
2023-03-29T05:11:45.494Z,4.30
2023-03-29T05:14:13.036Z,4.45
2023-03-29T05:16:44.831Z,3.88
2023-03-29T05:19:13.987Z,3.67
2023-03-29T05:21:44.396Z,3.72
2023-03-29T05:24:13.487Z,3.38
2023-03-29T05:26:41.035Z,3.92
2023-03-29T05:29:09.719Z,5.38
2023-03-29T05:31:40.802Z,5.38
2023-03-29T05:34:08.355Z,3.58
2023-03-29T05:36:39.118Z,5.15
2023-03-29T05:39:07.493Z,4.18
2023-03-29T05:41:35.382Z,3.55
2023-03-29T05:44:03.155Z,4.40
2023-03-29T05:46:30.705Z,5.00
2023-03-29T05:48:58.203Z,5.45
2023-03-29T05:51:25.925Z,5.82
2023-03-29T05:53:54.096Z,3.80
2023-03-29T05:56:21.575Z,4.75
2023-03-29T05:58:50.440Z,4.35
2023-03-29T06:01:21.357Z,5.20
2023-03-29T06:03:49.812Z,4.57
2023-03-29T06:06:17.723Z,4.60
2023-03-29T06:08:45.637Z,5.13
2023-03-29T06:11:14.012Z,4.63
2023-03-29T06:13:44.625Z,5.25
2023-03-29T06:16:13.877Z,4.93
2023-03-29T06:18:42.035Z,4.57
2023-03-29T06:21:09.920Z,3.83
2023-03-29T06:23:37.630Z,6.10
2023-03-29T06:26:06.574Z,4.07
2023-03-29T06:28:34.802Z,4.03
2023-03-29T06:31:03.815Z,3.92
2023-03-29T06:33:32.952Z,4.57
2023-03-29T06:36:00.663Z,4.10
2023-03-29T06:38:29.352Z,5.90
2023-03-29T06:41:04.325Z,4.60
2023-03-29T06:43:33.594Z,5.30
2023-03-29T06:46:02.259Z,5.22
2023-03-29T06:48:30.093Z,5.68
2023-03-29T06:51:00.219Z,4.50
2023-03-29T06:53:28.768Z,4.13
2023-03-29T06:55:56.625Z,3.95
2023-03-29T06:58:24.193Z,3.90
2023-03-29T07:00:52.347Z,4.63
2023-03-29T07:03:24.132Z,4.35
2023-03-29T07:05:53.105Z,4.57
2023-03-29T07:08:21.768Z,4.05
2023-03-29T07:10:53.263Z,4.45
2023-03-29T07:13:20.775Z,4.38
2023-03-29T07:15:48.364Z,5.07
2023-03-29T07:18:16.468Z,2.95
2023-03-29T07:20:44.335Z,5.05
2023-03-29T07:23:12.096Z,4.28
2023-03-29T07:25:40.225Z,5.20
2023-03-29T07:28:08.006Z,5.45
2023-03-29T07:30:35.537Z,4.55
2023-03-29T07:33:03.136Z,4.55
2023-03-29T07:35:31.469Z,4.68
2023-03-29T07:37:59.744Z,5.10
2023-03-29T07:40:27.972Z,4.97
2023-03-29T07:42:57.466Z,4.05
2023-03-29T07:45:28.317Z,3.80
2023-03-29T07:47:57.840Z,4.78
2023-03-29T07:50:25.517Z,5.28
2023-03-29T07:52:53.532Z,4.15
2023-03-29T07:55:21.315Z,4.72
2023-03-29T07:57:49.870Z,4.07
2023-03-29T08:00:18.083Z,5.00
2023-03-29T08:02:46.795Z,4.20
2023-03-29T08:05:18.911Z,4.32
2023-03-29T08:07:51.280Z,5.03
2023-03-29T08:10:22.545Z,3.90
2023-03-29T08:12:51.107Z,2.83
2023-03-29T08:15:18.871Z,5.50
2023-03-29T08:17:46.639Z,4.38
2023-03-29T08:20:16.354Z,3.65
2023-03-29T08:22:43.971Z,5.03
2023-03-29T08:25:12.650Z,5.00
2023-03-29T08:27:40.360Z,4.25
2023-03-29T08:30:08.811Z,5.00
2023-03-29T08:32:37.926Z,5.03
2023-03-29T08:35:07.186Z,5.82
2023-03-29T08:37:35.004Z,5.18
2023-03-29T08:40:03.050Z,5.22
2023-03-29T08:42:49.905Z,5.22
2023-03-29T08:45:32.362Z,5.97
2023-03-29T08:48:18.512Z,5.25
2023-03-29T08:50:53.308Z,5.40
2023-03-29T08:53:27.911Z,7.00
2023-03-29T08:55:57.930Z,4.95
2023-03-29T08:58:28.403Z,5.03
2023-03-29T09:00:58.448Z,5.32
2023-03-29T09:03:26.011Z,5.05
2023-03-29T09:06:07.606Z,4.60
2023-03-29T09:08:38.223Z,5.63
2023-03-29T09:11:17.628Z,3.78
2023-03-29T09:14:07.601Z,4.55
2023-03-29T09:16:58.638Z,5.43
2023-03-29T09:19:43.483Z,5.18
2023-03-29T09:22:43.965Z,6.68
2023-03-29T09:25:14.661Z,5.55
2023-03-29T09:27:51.385Z,4.55
2023-03-29T09:30:32.130Z,4.68
2023-03-29T09:33:05.825Z,5.65
2023-03-29T09:35:42.929Z,6.10
2023-03-29T09:38:13.039Z,5.57
2023-03-29T09:40:45.931Z,5.35
2023-03-29T09:43:14.744Z,4.45
2023-03-29T09:45:43.338Z,5.85
2023-03-29T09:48:18.158Z,4.88
2023-03-29T09:50:47.542Z,4.07
2023-03-29T09:53:15.371Z,4.32
2023-03-29T09:55:44.000Z,4.40
2023-03-29T09:58:17.651Z,6.30
2023-03-29T10:00:49.316Z,4.43
2023-03-29T10:03:24.578Z,4.30
2023-03-29T10:05:55.673Z,3.35
2023-03-29T10:08:27.677Z,4.72
2023-03-29T10:10:55.675Z,5.88
2023-03-29T10:13:27.466Z,4.85
2023-03-29T10:16:08.431Z,6.20
2023-03-29T10:18:46.388Z,6.30
2023-03-29T10:21:18.202Z,6.60
2023-03-29T10:23:45.849Z,3.95
2023-03-29T10:26:25.419Z,5.25
2023-03-29T10:28:54.714Z,6.53
2023-03-29T10:31:23.389Z,4.75
2023-03-29T10:33:55.534Z,4.43
2023-03-29T10:36:24.172Z,5.07
2023-03-29T10:38:57.798Z,5.78
2023-03-29T10:41:26.794Z,5.75
2023-03-29T10:43:55.132Z,5.82
2023-03-29T10:46:25.526Z,5.38
2023-03-29T10:48:58.048Z,5.75
2023-03-29T10:51:28.625Z,4.95
2023-03-29T10:53:57.537Z,5.70
2023-03-29T10:56:43.574Z,6.05
2023-03-29T10:59:31.549Z,5.85
2023-03-29T11:02:26.954Z,6.63
2023-03-29T11:05:01.873Z,6.57
2023-03-29T11:07:29.422Z,6.05
2023-03-29T11:10:05.808Z,7.10
2023-03-29T11:12:36.350Z,8.13
2023-03-29T11:15:19.756Z,5.72
2023-03-29T11:18:01.903Z,7.97
2023-03-29T11:20:29.769Z,9.40
2023-03-29T11:23:04.577Z,6.20
2023-03-29T11:25:32.801Z,6.35
2023-03-29T11:28:20.466Z,6.55
2023-03-29T11:30:52.742Z,6.47
2023-03-29T11:33:46.931Z,6.03
2023-03-29T11:36:20.408Z,6.47
2023-03-29T11:38:52.416Z,5.95
2023-03-29T11:41:26.093Z,5.60
2023-03-29T11:44:20.101Z,8.15
2023-03-29T11:46:47.607Z,6.63
2023-03-29T11:49:17.799Z,6.40
2023-03-29T11:51:46.965Z,5.43
2023-03-29T11:54:20.898Z,4.97
2023-03-29T11:56:51.163Z,6.93
2023-03-29T11:59:32.060Z,6.20
2023-03-29T12:02:05.962Z,7.25
2023-03-29T12:04:42.688Z,5.57
2023-03-29T12:07:19.864Z,5.38
2023-03-29T12:09:51.226Z,5.32
2023-03-29T12:12:18.988Z,5.40
2023-03-29T12:15:07.424Z,5.40
2023-03-29T12:18:01.228Z,5.30
2023-03-29T12:22:56.683Z,6.72
2023-03-29T12:25:53.280Z,6.18
2023-03-29T12:28:51.562Z,7.03
2023-03-29T12:31:29.024Z,6.75
2023-03-29T12:33:59.825Z,7.50
2023-03-29T12:36:43.785Z,6.32
2023-03-29T12:39:18.455Z,6.43
2023-03-29T12:41:49.665Z,6.55
2023-03-29T12:44:18.518Z,7.28
2023-03-29T12:46:46.215Z,5.93
2023-03-29T12:49:33.912Z,6.43
2023-03-29T12:52:02.968Z,5.10
2023-03-29T12:54:32.592Z,6.35
2023-03-29T12:57:00.959Z,5.10
2023-03-29T12:59:28.402Z,5.50
2023-03-29T13:01:59.153Z,6.00
2023-03-29T13:04:37.128Z,5.57
2023-03-29T13:07:05.143Z,8.32
2023-03-29T13:09:37.548Z,5.57
2023-03-29T13:12:08.541Z,5.97
2023-03-29T13:14:38.045Z,4.90
2023-03-29T13:17:17.628Z,6.85
2023-03-29T13:20:18.801Z,5.30
2023-03-29T13:22:49.498Z,6.28
2023-03-29T13:25:17.468Z,5.90
2023-03-29T13:27:57.821Z,4.50
2023-03-29T13:30:34.590Z,5.25
2023-03-29T13:33:20.210Z,4.38
2023-03-29T13:35:47.687Z,4.50
2023-03-29T13:38:29.202Z,5.25
2023-03-29T13:41:02.314Z,4.93
2023-03-29T13:43:38.284Z,4.80
2023-03-29T13:46:07.262Z,5.38
2023-03-29T13:48:38.254Z,4.97
2023-03-29T13:51:15.013Z,4.80
2023-03-29T13:53:46.733Z,5.07
2023-03-29T13:56:19.739Z,4.45
2023-03-29T13:58:49.796Z,7.05
2023-03-29T14:01:17.835Z,5.63
2023-03-29T14:03:47.215Z,4.38
2023-03-29T14:06:16.484Z,4.43
2023-03-29T14:08:45.019Z,6.45
2023-03-29T14:11:32.891Z,5.78
2023-03-29T14:14:01.843Z,4.57
2023-03-29T14:16:31.474Z,3.67
2023-03-29T14:19:00.288Z,4.43
2023-03-29T14:21:27.801Z,4.03
2023-03-29T14:23:56.838Z,5.90
2023-03-29T14:26:24.974Z,3.88
2023-03-29T14:28:53.607Z,4.88
2023-03-29T14:31:21.734Z,4.72
2023-03-29T14:33:56.061Z,3.67
2023-03-29T14:36:23.983Z,6.97
2023-03-29T14:39:00.424Z,9.25
2023-03-29T14:41:36.254Z,4.93
2023-03-29T14:44:04.746Z,3.65
2023-03-29T14:46:34.549Z,4.78
2023-03-29T14:49:03.004Z,4.20
2023-03-29T14:51:31.947Z,6.03
2023-03-29T14:54:01.050Z,4.20
2023-03-29T14:56:28.819Z,4.43
2023-03-29T14:58:59.964Z,4.90
2023-03-29T15:01:28.448Z,3.95
2023-03-29T15:03:56.985Z,11.00
2023-03-29T15:06:26.286Z,4.45
2023-03-29T15:09:04.436Z,4.80
2023-03-29T15:11:34.656Z,4.35
2023-03-29T15:14:05.450Z,3.10
2023-03-29T15:16:34.279Z,4.53
2023-03-29T15:19:02.585Z,3.17
2023-03-29T15:21:32.911Z,3.42
2023-03-29T15:24:01.837Z,4.95
2023-03-29T15:26:36.421Z,4.05
2023-03-29T15:29:13.110Z,3.88
2023-03-29T15:31:42.471Z,5.13
2023-03-29T15:34:14.426Z,4.35
2023-03-29T15:36:43.442Z,3.10
2023-03-29T15:39:14.790Z,3.70
2023-03-29T15:41:43.136Z,4.60
2023-03-29T15:44:10.920Z,3.92
2023-03-29T15:46:39.348Z,3.22
2023-03-29T15:49:06.830Z,3.35
2023-03-29T15:51:34.315Z,3.67
2023-03-29T15:54:01.965Z,3.83
2023-03-29T15:56:29.941Z,4.22
2023-03-29T15:58:57.653Z,4.00
2023-03-29T16:01:37.177Z,4.53
2023-03-29T16:04:05.662Z,4.13
2023-03-29T16:06:34.135Z,4.13
2023-03-29T16:09:02.404Z,3.63
2023-03-29T16:11:30.331Z,4.55
2023-03-29T16:13:57.881Z,6.03
2023-03-29T16:16:25.526Z,4.10
2023-03-29T16:18:53.040Z,4.55
2023-03-29T16:21:20.821Z,5.18
2023-03-29T16:23:48.813Z,3.95
2023-03-29T16:26:17.249Z,4.68
2023-03-29T16:28:44.813Z,3.95
2023-03-29T16:31:13.155Z,4.78
2023-03-29T16:33:43.789Z,3.72
2023-03-29T16:36:12.500Z,4.35
2023-03-29T16:38:42.679Z,3.38
2023-03-29T16:41:16.950Z,5.55
2023-03-29T16:43:44.798Z,5.72
2023-03-29T16:46:12.885Z,5.20
2023-03-29T16:48:40.535Z,4.28
2023-03-29T16:51:08.189Z,4.47
2023-03-29T16:53:36.206Z,5.47
2023-03-29T16:56:04.833Z,7.07
2023-03-29T16:58:33.064Z,6.25
2023-03-29T17:01:10.586Z,4.68
2023-03-29T17:03:38.230Z,4.68
2023-03-29T17:06:06.609Z,7.25
2023-03-29T17:08:34.528Z,4.68
2023-03-29T17:11:02.328Z,4.82
2023-03-29T17:13:30.356Z,5.00
2023-03-29T17:15:58.193Z,4.93
2023-03-29T17:18:32.013Z,5.47
2023-03-29T17:20:59.900Z,13.15
2023-03-29T17:23:27.855Z,7.20
2023-03-29T17:25:57.068Z,4.95
2023-03-29T17:28:24.863Z,4.60
2023-03-29T17:30:52.737Z,5.35
2023-03-29T17:33:22.923Z,4.03
2023-03-29T17:35:50.557Z,5.53
2023-03-29T17:38:18.720Z,8.80
2023-03-29T17:40:55.938Z,7.45
2023-03-29T17:43:23.710Z,5.82
2023-03-29T17:45:52.234Z,1.63
2023-03-29T17:48:20.552Z,1.50
2023-03-29T17:50:48.379Z,1.00
2023-03-29T17:53:15.980Z,0.90
2023-03-29T17:55:43.502Z,0.85
2023-03-29T17:58:11.017Z,1.85
2023-03-29T18:00:38.652Z,0.80
2023-03-29T18:03:06.534Z,1.63
2023-03-29T18:05:36.226Z,1.13
2023-03-29T18:08:04.114Z,2.30
2023-03-29T18:10:31.672Z,2.03
2023-03-29T18:12:59.202Z,2.20
2023-03-29T18:15:26.724Z,2.03
2023-03-29T18:17:54.296Z,2.90
2023-03-29T18:20:23.972Z,2.28
2023-03-29T18:22:51.474Z,3.42
2023-03-29T18:25:19.116Z,3.67
2023-03-29T18:27:46.579Z,3.20
2023-03-29T18:30:14.583Z,3.33
2023-03-29T18:32:42.338Z,3.42
2023-03-29T18:35:10.133Z,3.42
2023-03-29T18:37:38.164Z,3.17
2023-03-29T18:40:09.274Z,3.22
2023-03-29T18:42:37.003Z,2.65
2023-03-29T18:45:05.354Z,3.80
2023-03-29T18:47:33.519Z,2.97
2023-03-29T18:50:03.210Z,2.25
2023-03-29T18:52:30.785Z,2.80
2023-03-29T18:54:58.336Z,3.10
2023-03-29T18:57:25.975Z,2.83
2023-03-29T18:59:53.464Z,1.98
2023-03-29T19:02:21.057Z,2.38
2023-03-29T19:04:48.628Z,3.17
2023-03-29T19:07:16.134Z,3.47
2023-03-29T19:09:43.719Z,2.67
2023-03-29T19:12:11.200Z,1.98
2023-03-29T19:14:39.422Z,2.42
2023-03-29T19:17:07.955Z,2.55
2023-03-29T19:19:35.789Z,2.92
2023-03-29T19:22:03.838Z,2.17
2023-03-29T19:24:31.535Z,2.00
2023-03-29T19:26:59.129Z,2.60
2023-03-29T19:29:27.074Z,2.92
2023-03-29T19:31:55.248Z,2.25
2023-03-29T19:34:24.427Z,2.75
2023-03-29T19:36:54.988Z,2.42
2023-03-29T19:39:23.770Z,3.17
2023-03-29T19:41:54.207Z,3.30
2023-03-29T19:44:22.781Z,2.90
2023-03-29T19:46:51.215Z,2.95
2023-03-29T19:49:19.422Z,3.92
2023-03-29T19:51:48.551Z,4.20
2023-03-29T19:54:17.963Z,2.13
2023-03-29T19:56:45.595Z,2.75
2023-03-29T19:59:15.558Z,2.40
2023-03-29T20:01:51.853Z,3.10
2023-03-29T20:04:25.614Z,2.22
2023-03-29T20:06:53.286Z,1.58
2023-03-29T20:09:21.078Z,1.90
2023-03-29T20:11:48.598Z,2.00
2023-03-29T20:14:16.219Z,4.10
2023-03-29T20:16:44.724Z,1.60
2023-03-29T20:19:14.901Z,1.83
2023-03-29T20:21:42.534Z,0.98
2023-03-29T20:24:10.932Z,1.55
2023-03-29T20:26:38.717Z,1.55
2023-03-29T20:29:09.901Z,1.55
2023-03-29T20:31:37.445Z,1.17
2023-03-29T20:34:04.982Z,1.63
2023-03-29T20:36:35.505Z,1.35
2023-03-29T20:39:03.578Z,1.30
2023-03-29T20:41:32.514Z,1.30
2023-03-29T20:44:00.419Z,1.50
2023-03-29T20:46:34.908Z,1.35
2023-03-29T20:49:07.963Z,2.38
2023-03-29T20:51:36.803Z,1.88
2023-03-29T20:54:06.098Z,1.60
2023-03-29T20:56:35.397Z,1.08
2023-03-29T20:59:04.588Z,2.50
2023-03-29T21:01:32.791Z,1.35
2023-03-29T21:04:00.601Z,2.72
2023-03-29T21:06:29.009Z,1.60
2023-03-29T21:08:56.841Z,1.60
2023-03-29T21:11:24.620Z,1.48
2023-03-29T21:13:53.888Z,1.60
2023-03-29T21:16:21.363Z,3.40
2023-03-29T21:18:49.072Z,2.80
2023-03-29T21:21:16.863Z,1.27
2023-03-29T21:23:44.626Z,1.23
2023-03-29T21:26:12.227Z,1.60
2023-03-29T21:28:39.768Z,2.40
2023-03-29T21:31:07.650Z,1.52
2023-03-29T21:33:37.697Z,1.10
2023-03-29T21:36:05.740Z,1.45
2023-03-29T21:38:33.272Z,1.48
2023-03-29T21:41:01.874Z,3.33
2023-03-29T21:43:29.848Z,1.25
2023-03-29T21:45:58.651Z,2.00
2023-03-29T21:48:26.301Z,0.80
2023-03-29T21:50:54.597Z,0.98
2023-03-29T21:53:24.225Z,1.48
2023-03-29T21:55:52.495Z,1.50
2023-03-29T21:58:20.589Z,4.07
2023-03-29T22:00:50.044Z,1.27
2023-03-29T22:03:18.083Z,1.15
2023-03-29T22:05:55.596Z,1.27
2023-03-29T22:08:24.908Z,1.10
2023-03-29T22:10:56.052Z,1.05
2023-03-29T22:13:28.014Z,0.88
2023-03-29T22:15:59.688Z,1.30
2023-03-29T22:18:44.833Z,1.05
2023-03-29T22:21:14.660Z,1.88
2023-03-29T22:23:43.142Z,3.83
2023-03-29T22:26:11.890Z,1.77
2023-03-29T22:28:40.161Z,1.20
2023-03-29T22:31:09.469Z,1.10
2023-03-29T22:33:37.862Z,1.67
2023-03-29T22:36:12.944Z,1.42
2023-03-29T22:38:40.557Z,0.68
2023-03-29T22:41:08.370Z,1.23
2023-03-29T22:43:39.371Z,1.05
2023-03-29T22:46:07.843Z,1.05
2023-03-29T22:48:35.739Z,0.95
2023-03-29T22:51:03.610Z,1.60
2023-03-29T22:53:31.840Z,1.05
2023-03-29T22:55:59.529Z,1.17
2023-03-29T22:58:28.060Z,2.50
2023-03-29T23:00:56.063Z,1.33
2023-03-29T23:03:24.000Z,1.35
2023-03-29T23:05:52.410Z,1.40
2023-03-29T23:08:20.347Z,0.90
2023-03-29T23:10:48.234Z,1.42
2023-03-29T23:13:16.388Z,1.13
2023-03-29T23:15:46.403Z,1.08
2023-03-29T23:18:14.221Z,0.90
2023-03-29T23:20:42.267Z,1.25
2023-03-29T23:23:10.033Z,1.95
2023-03-29T23:25:37.617Z,1.15
2023-03-29T23:28:05.477Z,1.10
2023-03-29T23:30:34.616Z,1.27
2023-03-29T23:33:03.221Z,0.90
2023-03-29T23:35:31.692Z,0.90
2023-03-29T23:38:00.428Z,1.80
2023-03-29T23:40:28.592Z,1.38
2023-03-29T23:43:00.166Z,1.70
2023-03-29T23:45:28.681Z,1.20
2023-03-29T23:47:57.290Z,0.98
2023-03-29T23:50:25.483Z,0.95
2023-03-29T23:52:52.990Z,0.75
2023-03-29T23:55:20.994Z,1.10
2023-03-29T23:57:48.510Z,1.58
